CYYJ/YYJ METAR and TAF weather

Enter ICAO airport designator
Station Type Date Time Source
CYYJ METAR 2020/06/05 12:00 UTC NOAA

CYYJ 051200Z 00000KT 20SM FEW100 SCT180 BKN200 BKN230 10/10 A2984 RMK AC1AC3CC1CS2 SLP105


Station Type Date Time Source
CYYJ Decoded METAR 2020/06/05 12:00 UTC NOAA

Victoria Int. Airport, B. C., Canada (CYYJ) 48-39N 123-26W 19M
Jun 05, 2020 - 08:00 AM EDT / 2020.06.05 1200 UTC
Wind: Calm:0
Visibility: 20 mile(s):0
Sky conditions: mostly cloudy
Temperature: 50 F (10 C)
Dew Point: 50 F (10 C)
Relative Humidity: 100%
Pressure (altimeter): 29.84 in. Hg (1010 hPa)
ob: CYYJ 051200Z 00000KT 20SM FEW100 SCT180 BKN200 BKN230 10/10 A2984 RMK AC1AC3CC1CS2 SLP105
cycle: 12

Station Type Date Time Source
CYYJ TAF 2020/06/05 12:42 UTC NOAA

TAF CYYJ 051138Z 0512/0612 28005KT P6SM FEW030 SCT120 BKN200
FM052000 12006KT P6SM BKN120
FM060000 16010KT P6SM FEW040 SCT100
TEMPO 0600/0603 BKN040
FM060300 26008KT P6SM SCT080
TEMPO 0606/0612 BKN080
RMK NXT FCST BY 051800Z

Example: see airport list